Time;durP1;ratioP1;P1;durP2;ratioP2;P2;SDS_P1;SDS_P2;PMS_P1;PMS_P2;Temp;Humidity;BMP_temperature;BMP_pressure;BME280_temperature;BME280_humidity;BME280_pressure;Samples;Min_cycle;Max_cycle;Signal;HPM_P1;HPM_P2
2022/02/12 00:03:04;;;;;;;66.85;35.17;;;;;;;3.20;75.82;100979.28;1690557;85;21208;-63
2022/02/12 00:06:09;;;;;;;70.75;35.78;;;;;;;3.27;75.61;100984.59;1690671;83;21264;-63
2022/02/12 00:09:15;;;;;;;67.97;35.30;;;;;;;3.32;75.40;100981.53;1689190;83;21249;-64
2022/02/12 00:12:21;;;;;;;59.73;32.45;;;;;;;3.36;75.21;100986.63;1735680;82;21248;-62
2022/02/12 00:15:27;;;;;;;43.15;25.00;;;;;;;3.38;74.99;100984.64;1735576;82;21161;-63
2022/02/12 00:18:33;;;;;;;32.15;20.57;;;;;;;3.39;74.77;100986.87;1711925;83;21780;-62
2022/02/12 00:21:38;;;;;;;31.17;18.48;;;;;;;3.40;74.67;100989.45;1726359;83;21240;-63
2022/02/12 00:24:43;;;;;;;34.48;18.55;;;;;;;3.41;74.52;100983.05;1719199;83;21225;-62
2022/02/12 00:27:48;;;;;;;31.25;16.73;;;;;;;3.42;74.39;100981.22;1716260;83;21192;-63
2022/02/12 00:30:54;;;;;;;33.05;18.15;;;;;;;3.41;74.28;100968.69;1710251;82;21338;-63
2022/02/12 00:33:59;;;;;;;32.33;18.73;;;;;;;3.39;74.21;100969.28;1712618;81;21233;-63
2022/02/12 00:37:06;;;;;;;30.45;18.75;;;;;;;3.38;74.21;100964.86;1723117;83;21738;-63
2022/02/12 00:40:14;;;;;;;30.68;17.70;;;;;;;3.36;74.21;100964.98;1718474;83;21184;-63
2022/02/12 00:43:19;;;;;;;31.68;17.92;;;;;;;3.35;74.27;100957.81;1719297;83;21194;-63
2022/02/12 00:46:26;;;;;;;27.75;16.77;;;;;;;3.35;74.30;100955.11;1719277;83;21190;-63
2022/02/12 00:49:31;;;;;;;27.20;16.30;;;;;;;3.34;74.30;100957.45;1702820;82;21727;-63
2022/02/12 00:52:37;;;;;;;26.45;16.23;;;;;;;3.36;74.43;100963.63;1708292;83;21736;-63
2022/02/12 00:55:47;;;;;;;28.42;15.95;;;;;;;3.38;74.46;100971.11;1758139;80;21376;-62
2022/02/12 00:58:53;;;;;;;32.40;17.48;;;;;;;3.39;74.46;100967.45;1766664;80;21200;-63
2022/02/12 01:01:58;;;;;;;22.37;13.65;;;;;;;3.41;74.42;100959.21;1769620;80;21253;-62
2022/02/12 01:05:03;;;;;;;23.87;13.75;;;;;;;3.38;74.21;100962.16;1732786;83;21224;-63
2022/02/12 01:08:10;;;;;;;39.60;19.20;;;;;;;3.33;74.10;100959.77;1769798;80;21252;-63
2022/02/12 01:11:16;;;;;;;77.30;46.48;;;;;;;3.31;74.19;100959.52;1704965;84;21417;-63
2022/02/12 01:14:21;;;;;;;70.42;40.23;;;;;;;3.30;74.40;100960.52;1739209;81;21742;-63
2022/02/12 01:17:29;;;;;;;57.65;32.53;;;;;;;3.25;74.27;100949.17;1766313;81;21181;-63
2022/02/12 01:20:34;;;;;;;46.23;25.68;;;;;;;3.25;74.86;100940.55;1770306;80;21197;-63
2022/02/12 01:23:41;;;;;;;34.85;20.70;;;;;;;3.32;75.24;100928.30;1733735;82;21355;-62
2022/02/12 01:26:48;;;;;;;36.50;20.15;;;;;;;3.33;75.04;100934.58;1753500;81;21379;-63
2022/02/12 01:29:55;;;;;;;29.02;17.55;;;;;;;3.31;74.94;100933.34;1735056;81;21236;-62
2022/02/12 01:32:59;;;;;;;31.25;17.27;;;;;;;3.32;75.12;100939.11;1735466;82;21196;-62
2022/02/12 01:36:05;;;;;;;30.02;17.30;;;;;;;3.32;75.12;100932.35;1771620;79;21226;-62
2022/02/12 01:39:10;;;;;;;30.17;17.62;;;;;;;3.32;75.30;100933.70;1716931;81;21346;-63
2022/02/12 01:42:16;;;;;;;29.85;19.10;;;;;;;3.34;75.44;100932.23;1768869;80;21196;-63
2022/02/12 01:45:21;;;;;;;36.00;18.37;;;;;;;3.37;75.48;100934.70;1759092;81;21328;-62
2022/02/12 01:48:27;;;;;;;32.67;20.15;;;;;;;3.37;75.46;100934.70;1749590;80;21317;-62
2022/02/12 01:51:32;;;;;;;33.05;20.70;;;;;;;3.42;75.75;100936.57;1769075;81;21228;-62
2022/02/12 01:54:36;;;;;;;36.93;21.25;;;;;;;3.48;75.74;100942.38;1772653;79;21378;-63
2022/02/12 01:57:42;;;;;;;33.48;19.92;;;;;;;3.48;75.44;100930.20;1772335;81;21261;-63
2022/02/12 02:00:47;;;;;;;33.15;19.85;;;;;;;3.47;75.17;100923.08;1772155;79;21548;-64
2022/02/12 02:03:54;;;;;;;31.27;18.90;;;;;;;3.45;75.06;100925.52;1765832;79;21205;-63
2022/02/12 02:07:03;;;;;;;28.80;17.17;;;;;;;3.41;75.03;100920.81;1772808;80;21219;-62
2022/02/12 02:10:12;;;;;;;29.40;17.52;;;;;;;3.41;75.27;100923.52;1760348;80;21770;-63
2022/02/12 02:13:31;;;;;;;30.45;18.02;;;;;;;3.46;75.58;100924.04;1772595;80;21639;-62
2022/02/12 02:16:36;;;;;;;30.27;18.27;;;;;;;3.49;75.52;100926.50;1772215;80;21171;-63
2022/02/12 02:19:43;;;;;;;28.65;18.52;;;;;;;3.54;75.69;100926.15;1772633;79;21249;-63
2022/02/12 02:23:00;;;;;;;29.27;18.55;;;;;;;3.62;75.91;100927.30;1771073;80;21619;-62
2022/02/12 02:26:05;;;;;;;29.63;17.57;;;;;;;3.67;75.81;100928.28;1772784;79;21745;-63
2022/02/12 02:29:09;;;;;;;32.25;17.67;;;;;;;3.71;75.73;100926.57;1772515;79;21344;-62
2022/02/12 02:32:17;;;;;;;33.85;18.90;;;;;;;3.77;75.61;100932.02;1772885;80;21185;-63
2022/02/12 02:35:22;;;;;;;28.92;17.45;;;;;;;3.78;75.27;100923.77;1764645;80;21833;-63
2022/02/12 02:38:31;;;;;;;36.98;19.20;;;;;;;3.73;74.82;100917.84;1773276;80;21351;-63
2022/02/12 02:41:37;;;;;;;33.90;18.12;;;;;;;3.71;74.96;100923.86;1772870;80;21288;-62
2022/02/12 02:44:42;;;;;;;32.85;18.45;;;;;;;3.74;75.14;100920.07;1773110;79;22225;-62
2022/02/12 02:47:48;;;;;;;28.12;16.50;;;;;;;3.75;75.03;100922.66;1764676;80;21374;-62
2022/02/12 02:57:40;;;;;;;22.32;14.38;;;;;;;3.79;75.20;100911.95;1771249;81;21173;-63
2022/02/12 03:00:46;;;;;;;18.23;11.43;;;;;;;3.81;75.09;100907.28;1771333;79;21366;-63
2022/02/12 03:03:56;;;;;;;18.02;11.18;;;;;;;3.80;75.07;100908.28;1763714;81;21233;-63
2022/02/12 03:07:03;;;;;;;13.55;9.48;;;;;;;3.83;75.11;100904.45;1771316;80;21233;-63
2022/02/12 03:10:11;;;;;;;11.38;8.28;;;;;;;3.84;75.01;100900.27;1771069;79;21166;-63
2022/02/12 03:13:17;;;;;;;10.88;7.97;;;;;;;3.77;74.92;100900.40;1771488;81;21319;-62
2022/02/12 03:16:23;;;;;;;12.43;8.35;;;;;;;3.68;74.94;100895.67;1771201;81;21224;-63
2022/02/12 03:19:28;;;;;;;11.48;7.80;;;;;;;3.59;74.97;100896.41;1763747;79;21220;-63
2022/02/12 03:22:33;;;;;;;10.90;8.13;;;;;;;3.51;75.13;100902.03;1772210;80;21339;-63
2022/02/12 03:25:41;;;;;;;12.23;8.60;;;;;;;3.45;75.33;100907.92;1771184;79;21959;-63
2022/02/12 03:28:47;;;;;;;11.70;7.58;;;;;;;3.46;75.83;100900.16;1771614;80;21343;-62
2022/02/12 03:31:53;;;;;;;10.82;7.70;;;;;;;3.52;76.06;100891.08;1771368;81;21181;-62
2022/02/12 03:34:58;;;;;;;13.58;9.00;;;;;;;3.55;76.16;100894.06;1771527;79;21317;-63
2022/02/12 03:38:22;;;;;;;14.38;9.38;;;;;;;3.61;76.37;100886.33;1771531;79;21287;-63
2022/02/12 03:41:28;;;;;;;15.38;9.70;;;;;;;3.67;76.42;100885.84;1770742;80;21220;-63
2022/02/12 03:44:34;;;;;;;15.10;9.25;;;;;;;3.70;76.51;100880.19;1771088;79;21344;-61
2022/02/12 03:47:39;;;;;;;13.93;9.18;;;;;;;3.74;76.52;100875.41;1770187;80;21320;-62
2022/02/12 03:50:45;;;;;;;12.30;7.95;;;;;;;3.76;76.65;100878.34;1769454;80;21399;-63
2022/02/12 03:53:53;;;;;;;10.68;7.10;;;;;;;3.75;76.58;100875.76;1768299;80;21912;-62
2022/02/12 03:56:59;;;;;;;10.93;7.42;;;;;;;3.72;76.68;100887.70;1769195;81;21213;-61
2022/02/12 04:00:05;;;;;;;10.08;6.50;;;;;;;3.68;76.77;100878.59;1769093;80;21215;-62
2022/02/12 04:03:11;;;;;;;11.50;7.47;;;;;;;3.64;77.03;100875.26;1769287;80;21205;-62
2022/02/12 04:06:18;;;;;;;12.70;7.25;;;;;;;3.65;77.27;100874.27;1769305;81;21352;-62
2022/02/12 04:09:23;;;;;;;11.10;7.62;;;;;;;3.65;77.43;100863.44;1761608;81;21359;-62
2022/02/12 04:12:29;;;;;;;11.80;8.38;;;;;;;3.67;77.61;100853.84;1768887;80;21181;-61
2022/02/12 04:15:36;;;;;;;15.38;9.88;;;;;;;3.65;77.68;100863.44;1769221;80;21334;-62
2022/02/12 04:18:42;;;;;;;15.35;8.78;;;;;;;3.63;77.73;100869.45;1769573;81;21226;-61
2022/02/12 04:21:50;;;;;;;16.35;9.60;;;;;;;3.61;77.85;100867.38;1769229;81;21336;-61
2022/02/12 04:24:56;;;;;;;16.97;9.08;;;;;;;3.64;78.15;100873.03;1769105;80;21752;-62
2022/02/12 04:28:02;;;;;;;13.55;8.35;;;;;;;3.67;78.19;100870.95;1769146;81;22293;-62
2022/02/12 04:31:08;;;;;;;13.72;9.03;;;;;;;3.71;78.27;100862.95;1769289;81;21398;-62
2022/02/12 04:34:14;;;;;;;16.02;10.18;;;;;;;3.69;78.10;100859.52;1769136;80;21343;-61
2022/02/12 04:37:18;;;;;;;13.50;8.33;;;;;;;3.64;78.20;100863.08;1769918;81;21331;-61
2022/02/12 04:40:25;;;;;;;17.82;9.50;;;;;;;3.67;78.44;100862.83;1770665;79;21215;-61
2022/02/12 04:43:31;;;;;;;19.37;11.35;;;;;;;3.69;78.48;100854.11;1771063;81;21916;-61
2022/02/12 04:46:38;;;;;;;18.20;10.70;;;;;;;3.72;78.58;100862.47;1770791;81;21355;-60
2022/02/12 04:49:51;;;;;;;20.85;10.80;;;;;;;3.72;78.47;100857.92;1770946;79;21229;-61
2022/02/12 04:52:53;;;;;;;22.27;10.90;;;;;;;3.73;78.57;100849.29;1770646;80;21200;-60
2022/02/12 04:55:59;;;;;;;17.60;10.08;;;;;;;3.76;78.64;100851.27;1770474;79;21212;-60
2022/02/12 04:59:07;;;;;;;13.60;7.87;;;;;;;3.79;78.71;100845.61;1770585;80;21299;-60
2022/02/12 05:02:12;;;;;;;29.02;17.55;;;;;;;3.80;78.70;100833.81;1770050;80;21189;-61
2022/02/12 05:05:17;;;;;;;41.50;20.65;;;;;;;3.82;78.55;100838.59;1770729;80;21209;-60
2022/02/12 05:08:22;;;;;;;43.80;21.65;;;;;;;3.82;78.51;100829.11;1770988;80;21193;-60
2022/02/12 05:11:30;;;;;;;32.88;18.05;;;;;;;3.83;78.48;100829.50;1769754;81;21410;-61
2022/02/12 05:14:35;;;;;;;48.55;23.57;;;;;;;3.84;78.48;100819.03;1770228;79;21865;-60
2022/02/12 05:17:40;;;;;;;72.00;30.55;;;;;;;3.83;78.46;100818.67;1770566;80;21173;-61
2022/02/12 05:20:47;;;;;;;87.00;32.85;;;;;;;3.84;78.44;100802.78;1770303;79;21276;-60
2022/02/12 05:23:52;;;;;;;55.05;25.10;;;;;;;3.84;78.41;100805.50;1770318;80;22108;-60
2022/02/12 05:26:57;;;;;;;38.50;19.42;;;;;;;3.85;78.37;100786.93;1770653;80;21228;-59
2022/02/12 05:30:03;;;;;;;39.65;19.52;;;;;;;3.86;78.28;100794.06;1770245;79;21255;-60
2022/02/12 05:33:08;;;;;;;19.73;12.00;;;;;;;3.77;78.01;100792.09;1770890;80;21201;-60
2022/02/12 05:36:17;;;;;;;13.43;8.40;;;;;;;3.75;78.26;100787.77;1771149;79;21267;-60
2022/02/12 05:39:23;;;;;;;13.00;9.38;;;;;;;3.73;78.32;100785.67;1770715;79;21201;-60
2022/02/12 05:42:29;;;;;;;12.28;9.00;;;;;;;3.71;78.23;100785.80;1770271;80;21220;-59
2022/02/12 05:45:35;;;;;;;72.53;37.13;;;;;;;3.63;78.40;100800.42;1771156;79;21213;-59
2022/02/12 05:48:40;;;;;;;28.27;16.32;;;;;;;3.63;78.55;100772.00;1767540;80;21193;-60
2022/02/12 05:51:51;;;;;;;23.32;14.58;;;;;;;3.64;78.67;100784.58;1771824;80;21346;-60
2022/02/12 05:54:57;;;;;;;15.50;10.55;;;;;;;3.58;78.68;100799.96;1760728;80;21636;-59
2022/02/12 05:58:06;;;;;;;16.82;10.38;;;;;;;3.56;78.92;100811.39;1770678;81;21402;-60
2022/02/12 06:01:12;;;;;;;16.20;11.12;;;;;;;3.54;79.05;100786.77;1770499;79;21382;-60
2022/02/12 06:04:19;;;;;;;18.10;11.93;;;;;;;3.52;79.05;100789.59;1770406;79;21197;-61
2022/02/12 06:07:25;;;;;;;21.37;11.95;;;;;;;3.52;79.29;100797.71;1769895;81;21212;-60
2022/02/12 06:10:30;;;;;;;20.82;14.13;;;;;;;3.59;79.46;100794.03;1769983;79;21751;-59
2022/02/12 06:13:35;;;;;;;22.80;14.80;;;;;;;3.62;79.34;100793.30;1769490;81;21218;-60
2022/02/12 06:16:41;;;;;;;22.25;13.98;;;;;;;3.66;79.32;100793.93;1769773;81;21188;-60
2022/02/12 06:19:46;;;;;;;33.25;20.00;;;;;;;3.71;79.44;100787.15;1770400;79;21221;-59
2022/02/12 06:22:54;;;;;;;31.23;19.92;;;;;;;3.79;79.40;100777.08;1769862;81;21371;-59
2022/02/12 06:25:58;;;;;;;27.62;17.60;;;;;;;3.76;79.16;100774.11;1762300;80;22307;-58
2022/02/12 06:29:05;;;;;;;31.80;20.30;;;;;;;3.80;79.24;100782.86;1782767;79;21845;-57
2022/02/12 06:32:10;;;;;;;44.48;26.93;;;;;;;3.83;79.35;100782.61;1770208;80;21188;-58
2022/02/12 06:35:16;;;;;;;63.20;38.63;;;;;;;3.92;79.49;100779.14;1770309;79;21216;-59
2022/02/12 06:38:20;;;;;;;108.22;56.13;;;;;;;4.02;79.71;100777.42;1770460;80;21201;-59
2022/02/12 06:41:26;;;;;;;145.62;71.82;;;;;;;4.10;79.60;100767.70;1770618;80;21221;-58
2022/02/12 06:44:32;;;;;;;133.22;62.50;;;;;;;4.18;79.43;100772.00;1770567;79;21209;-58
2022/02/12 06:47:37;;;;;;;56.23;32.38;;;;;;;4.21;79.09;100777.64;1770494;80;21212;-58
2022/02/12 06:50:45;;;;;;;39.67;26.30;;;;;;;4.18;78.56;100780.13;1770583;79;21331;-58
2022/02/12 06:53:51;;;;;;;58.55;34.48;;;;;;;4.16;78.68;100776.67;1771153;80;21201;-59
2022/02/12 06:57:00;;;;;;;42.48;26.00;;;;;;;4.24;78.84;100775.55;1766003;80;21272;-59
2022/02/12 07:00:06;;;;;;;37.80;22.62;;;;;;;4.32;78.82;100783.91;1724207;82;21240;-58
2022/02/12 07:03:12;;;;;;;26.93;19.00;;;;;;;4.41;78.60;100791.75;1735451;82;21717;-58
2022/02/12 07:06:17;;;;;;;29.95;20.68;;;;;;;4.42;78.14;100794.85;1721134;82;21231;-59
2022/02/12 07:09:25;;;;;;;34.83;21.80;;;;;;;4.29;77.51;100795.00;1720641;82;21890;-58
2022/02/12 07:12:31;;;;;;;48.68;28.35;;;;;;;4.18;77.73;100787.38;1770365;80;21288;-58
2022/02/12 07:15:36;;;;;;;61.42;38.42;;;;;;;4.25;78.35;100785.91;1770122;79;21654;-59
2022/02/12 07:18:41;;;;;;;76.35;45.58;;;;;;;4.35;78.41;100797.20;1770380;80;21255;-59
2022/02/12 07:21:47;;;;;;;70.65;42.67;;;;;;;4.39;78.27;100798.66;1771192;80;21224;-59
2022/02/12 07:24:52;;;;;;;52.15;31.75;;;;;;;4.43;78.13;100792.02;1770678;79;21224;-59
2022/02/12 07:28:02;;;;;;;53.17;30.37;;;;;;;4.48;78.17;100799.27;1769687;81;21249;-59
2022/02/12 07:31:08;;;;;;;40.95;23.27;;;;;;;4.52;78.03;100790.37;1769864;79;21228;-59
2022/02/12 07:34:15;;;;;;;32.48;19.20;;;;;;;4.47;77.55;100797.53;1770017;79;21181;-59
2022/02/12 07:37:20;;;;;;;23.07;15.45;;;;;;;4.33;77.46;100799.17;1769386;81;21730;-59
2022/02/12 07:40:27;;;;;;;26.70;16.23;;;;;;;4.29;77.77;100803.14;1769249;79;21225;-59
2022/02/12 07:43:35;;;;;;;22.07;13.85;;;;;;;4.22;77.90;100804.61;1763252;80;21189;-60
2022/02/12 07:46:42;;;;;;;22.10;13.93;;;;;;;4.14;78.15;100808.92;1763795;81;21169;-58
2022/02/12 07:49:47;;;;;;;23.22;15.65;;;;;;;4.01;78.33;100821.24;1748894;80;21731;-57
2022/02/12 07:52:53;;;;;;;27.80;16.25;;;;;;;4.00;78.80;100830.36;1740166;82;21248;-58
2022/02/12 07:55:58;;;;;;;25.37;15.08;;;;;;;3.99;79.16;100839.48;1739709;81;21249;-58
2022/02/12 07:59:05;;;;;;;23.42;14.98;;;;;;;4.01;79.30;100830.72;1706084;83;21342;-58
2022/02/12 08:02:12;;;;;;;22.70;14.35;;;;;;;4.04;79.61;100841.30;1688325;84;21235;-58
2022/02/12 08:05:19;;;;;;;24.80;15.45;;;;;;;4.06;79.61;100833.09;1705562;83;21350;-57
2022/02/12 08:08:25;;;;;;;27.22;16.45;;;;;;;4.06;79.77;100855.59;1732816;82;21197;-58
2022/02/12 08:11:35;;;;;;;24.43;15.50;;;;;;;4.09;79.83;100858.05;1733266;82;21212;-57
2022/02/12 08:14:40;;;;;;;24.55;15.75;;;;;;;4.10;79.90;100867.93;1733312;82;21761;-58
2022/02/12 08:17:44;;;;;;;22.20;14.85;;;;;;;4.11;79.90;100869.64;1733701;82;21180;-59
2022/02/12 08:20:51;;;;;;;19.10;13.38;;;;;;;4.11;80.03;100878.25;1723915;81;21191;-57
2022/02/12 08:23:57;;;;;;;19.02;12.82;;;;;;;4.10;79.86;100877.41;1715970;81;21246;-58
2022/02/12 08:27:01;;;;;;;18.35;12.33;;;;;;;4.06;79.82;100883.20;1735714;82;21184;-58
2022/02/12 08:30:11;;;;;;;18.35;12.28;;;;;;;3.91;79.84;100885.28;1733195;81;21192;-57
2022/02/12 08:33:17;;;;;;;14.63;10.80;;;;;;;3.72;80.02;100891.77;1735827;82;21184;-58
2022/02/12 08:36:24;;;;;;;13.40;9.38;;;;;;;3.63;80.46;100889.75;1735572;82;21212;-58
2022/02/12 08:39:30;;;;;;;13.32;9.18;;;;;;;3.66;80.75;100893.61;1728294;81;21215;-58
2022/02/12 08:42:36;;;;;;;10.03;7.42;;;;;;;3.56;80.72;100907.47;1715398;82;21764;-56
2022/02/12 08:45:43;;;;;;;8.85;6.42;;;;;;;3.51;80.85;100911.02;1732257;82;21192;-57
2022/02/12 08:48:48;;;;;;;7.05;5.58;;;;;;;3.26;81.06;100922.00;1734172;82;21205;-57
2022/02/12 08:51:54;;;;;;;5.62;5.00;;;;;;;3.12;82.37;100937.54;1734011;82;21466;-58
2022/02/12 08:55:00;;;;;;;5.95;4.67;;;;;;;3.17;82.47;100943.47;1734326;82;21335;-58
2022/02/12 08:58:05;;;;;;;6.70;4.60;;;;;;;3.24;82.52;100964.53;1740226;80;21263;-58
2022/02/12 09:01:12;;;;;;;4.90;3.80;;;;;;;3.44;82.76;100972.50;1767666;81;21258;-58
2022/02/12 09:04:19;;;;;;;5.85;4.67;;;;;;;3.51;82.56;100982.73;1767743;81;21194;-59
2022/02/12 09:07:26;;;;;;;4.65;3.62;;;;;;;3.52;82.41;100992.58;1761314;81;21182;-58
2022/02/12 09:10:31;;;;;;;5.00;3.83;;;;;;;3.57;82.41;101002.56;1768346;81;21343;-57
2022/02/12 09:13:37;;;;;;;5.67;4.35;;;;;;;3.63;82.24;101016.98;1757105;80;21464;-57
2022/02/12 09:16:44;;;;;;;5.03;3.60;;;;;;;3.60;81.78;101023.15;1769033;81;21570;-58
2022/02/12 09:19:50;;;;;;;5.03;3.55;;;;;;;3.53;81.61;101021.39;1768500;81;21275;-58
2022/02/12 09:22:57;;;;;;;5.33;4.10;;;;;;;3.57;81.61;101020.16;1765815;81;21204;-58
2022/02/12 09:26:02;;;;;;;10.13;6.05;;;;;;;3.69;81.54;101039.55;1739160;81;21248;-58
2022/02/12 09:29:08;;;;;;;6.47;5.05;;;;;;;3.75;81.18;101043.14;1739509;81;21185;-57
2022/02/12 09:32:15;;;;;;;5.35;4.30;;;;;;;3.69;80.80;101055.80;1738476;82;21193;-57
2022/02/12 09:35:21;;;;;;;5.95;4.80;;;;;;;3.57;80.61;101062.62;1738767;81;21220;-57
2022/02/12 09:38:32;;;;;;;7.45;5.85;;;;;;;3.48;80.82;101076.34;1738866;82;21201;-57
2022/02/12 09:41:38;;;;;;;6.62;5.15;;;;;;;3.47;80.88;101086.81;1738393;82;21734;-58
2022/02/12 09:44:48;;;;;;;4.67;3.92;;;;;;;3.50;80.90;101083.88;1758533;81;21761;-57
2022/02/12 09:47:57;;;;;;;6.22;4.70;;;;;;;3.55;80.86;101094.35;1769082;81;21232;-57
2022/02/12 09:51:06;;;;;;;5.08;3.60;;;;;;;3.63;80.65;101094.13;1769025;81;21201;-56
2022/02/12 09:54:11;;;;;;;4.95;3.08;;;;;;;3.76;80.44;101107.65;1769284;81;21165;-57
2022/02/12 09:57:17;;;;;;;6.62;4.95;;;;;;;4.03;80.36;101108.24;1770092;80;21184;-57
2022/02/12 10:00:26;;;;;;;5.90;4.70;;;;;;;4.16;79.41;101112.63;1767977;79;21193;-57
2022/02/12 10:03:34;;;;;;;6.40;2.87;;;;;;;4.16;79.00;101118.52;1782655;80;21833;-58
2022/02/12 10:06:49;;;;;;;3.80;2.83;;;;;;;4.12;78.77;101121.95;1769936;80;21252;-58
2022/02/12 10:10:00;;;;;;;3.35;2.50;;;;;;;4.19;78.72;101119.16;1707160;84;21229;-57
2022/02/12 10:13:34;;;;;;;3.58;2.67;;;;;;;4.32;78.13;101133.50;1759219;80;21204;-57
2022/02/12 10:17:05;;;;;;;4.28;2.77;;;;;;;4.21;77.83;101136.17;1770455;80;21741;-58
2022/02/12 10:20:13;;;;;;;3.15;2.25;;;;;;;4.19;78.14;101138.61;1770030;79;21201;-57
2022/02/12 10:23:25;;;;;;;3.22;2.58;;;;;;;4.29;77.97;101157.26;1770215;80;21279;-58
2022/02/12 10:26:38;;;;;;;5.05;3.10;;;;;;;4.36;77.59;101153.95;1770029;80;21184;-58
2022/02/12 10:29:39;;;;;;;6.92;4.10;;;;;;;4.40;77.38;101156.82;1768856;79;21260;-58
2022/02/12 10:32:44;;;;;;;4.92;3.40;;;;;;;4.45;77.29;101178.15;1761079;81;21251;-59
2022/02/12 10:35:49;;;;;;;3.98;2.75;;;;;;;4.57;76.67;101180.77;1768391;79;21212;-58
2022/02/12 10:38:59;;;;;;;4.55;3.17;;;;;;;4.51;75.34;101185.32;1769190;81;21192;-59
2022/02/12 10:42:16;;;;;;;3.12;2.47;;;;;;;4.46;75.32;101197.00;1770063;81;21232;-59
2022/02/12 10:45:25;;;;;;;3.12;2.35;;;;;;;4.39;74.92;101198.44;1770735;79;21213;-58
2022/02/12 10:48:40;;;;;;;5.33;3.00;;;;;;;4.28;74.64;101198.90;1770894;81;21224;-61
2022/02/12 10:51:51;;;;;;;5.45;3.47;;;;;;;4.15;74.70;101189.48;1770513;80;21213;-59
2022/02/12 10:55:00;;;;;;;6.20;4.20;;;;;;;4.10;74.86;101209.28;1770529;79;21702;-57
2022/02/12 10:58:20;;;;;;;6.05;4.05;;;;;;;3.99;75.08;101216.47;1770111;81;21829;-59
2022/02/12 11:01:26;;;;;;;6.40;3.70;;;;;;;3.91;75.25;101206.20;1759067;80;21264;-59
2022/02/12 11:04:31;;;;;;;6.20;4.12;;;;;;;4.06;75.33;101216.40;1770118;79;21208;-59
2022/02/12 11:07:37;;;;;;;6.45;4.15;;;;;;;4.14;74.70;101223.43;1770329;80;21702;-58
2022/02/12 11:10:45;;;;;;;7.60;4.12;;;;;;;4.26;74.66;101235.60;1738007;82;21351;-59
2022/02/12 11:13:52;;;;;;;5.20;3.77;;;;;;;4.44;74.41;101245.04;1738386;82;21197;-59
2022/02/12 11:16:57;;;;;;;6.85;4.08;;;;;;;4.52;73.57;101253.94;1738217;82;21332;-60
2022/02/12 11:20:04;;;;;;;6.37;4.03;;;;;;;4.63;73.89;101265.70;1738100;82;21366;-59
2022/02/12 11:23:32;;;;;;;5.80;4.70;;;;;;;4.85;73.45;101283.06;1738337;82;21193;-59
2022/02/12 11:26:52;;;;;;;7.03;4.62;;;;;;;4.96;72.62;101277.68;1738448;82;21233;-60
2022/02/12 11:30:21;;;;;;;6.80;4.90;;;;;;;5.09;71.88;101301.53;1731726;82;21275;-59
2022/02/12 11:33:29;;;;;;;6.90;5.17;;;;;;;5.01;71.09;101295.31;1742617;80;21387;-60
2022/02/12 11:36:34;;;;;;;7.67;4.72;;;;;;;4.90;70.90;101302.57;1761302;80;21344;-61
2022/02/12 11:39:39;;;;;;;6.50;3.80;;;;;;;4.85;70.99;101324.63;1770255;81;21717;-59
2022/02/12 11:42:55;;;;;;;6.53;3.98;;;;;;;4.74;70.70;101313.70;1770556;81;21236;-61
2022/02/12 11:46:02;;;;;;;5.17;2.80;;;;;;;4.59;70.91;101334.73;1761423;80;21725;-60
2022/02/12 11:49:45;;;;;;;6.62;3.15;;;;;;;4.50;70.66;101340.81;1771841;80;21196;-60
2022/02/12 11:52:59;;;;;;;6.45;2.83;;;;;;;4.48;70.45;101337.38;1770931;80;21239;-60
2022/02/12 11:56:13;;;;;;;5.15;2.67;;;;;;;4.51;70.03;101346.63;1771410;81;21213;-59
2022/02/12 11:59:20;;;;;;;4.10;2.57;;;;;;;4.60;69.35;101358.14;1771682;79;21233;-60
2022/02/12 12:02:51;;;;;;;5.67;2.85;;;;;;;4.56;69.30;101353.94;1766838;80;21212;-59
2022/02/12 12:05:56;;;;;;;4.97;3.40;;;;;;;4.51;69.38;101364.73;1767908;80;21260;-61
2022/02/12 12:09:17;;;;;;;4.58;3.10;;;;;;;4.41;69.84;101382.16;1768031;81;21754;-60
2022/02/12 12:12:27;;;;;;;5.33;3.05;;;;;;;4.40;69.95;101383.16;1768057;80;21186;-60
2022/02/12 12:15:34;;;;;;;10.25;3.35;;;;;;;4.42;70.22;101386.59;1769112;80;21398;-61
2022/02/12 12:18:50;;;;;;;5.15;3.37;;;;;;;4.50;70.37;101395.03;1762047;80;21208;-60
2022/02/12 12:21:57;;;;;;;6.55;3.72;;;;;;;4.54;70.49;101412.83;1760594;81;21352;-62
2022/02/12 12:25:07;;;;;;;7.75;4.00;;;;;;;4.45;70.44;101412.63;1759674;81;21259;-60
2022/02/12 12:28:13;;;;;;;8.75;3.90;;;;;;;4.29;70.65;101419.66;1738431;81;21229;-61
2022/02/12 12:31:19;;;;;;;6.40;4.15;;;;;;;4.15;70.85;101434.70;1765308;81;21197;-62
2022/02/12 12:34:25;;;;;;;7.80;5.00;;;;;;;4.02;71.26;101437.89;1768675;79;21566;-61
2022/02/12 12:37:31;;;;;;;7.53;4.37;;;;;;;3.92;71.53;101440.86;1769063;80;21833;-62
2022/02/12 12:40:40;;;;;;;7.67;4.60;;;;;;;3.99;71.95;101440.82;1769357;79;21205;-63
2022/02/12 12:43:45;;;;;;;6.62;4.03;;;;;;;4.07;71.68;101451.98;1769733;81;21196;-60
2022/02/12 12:46:52;;;;;;;6.50;4.50;;;;;;;4.08;71.64;101439.28;1767614;81;21197;-61
2022/02/12 12:50:01;;;;;;;10.15;4.53;;;;;;;4.08;71.78;101449.64;1763083;81;21216;-62
2022/02/12 12:53:15;;;;;;;5.90;4.15;;;;;;;4.11;71.83;101452.61;1758995;81;21733;-61
2022/02/12 12:56:22;;;;;;;6.60;3.73;;;;;;;4.14;71.98;101457.33;1747536;80;21251;-62
2022/02/12 12:59:28;;;;;;;5.30;3.65;;;;;;;4.20;71.96;101449.27;1769993;81;21431;-61
2022/02/12 13:02:38;;;;;;;6.78;3.92;;;;;;;4.15;71.91;101462.27;1768201;80;21243;-61
2022/02/12 13:05:43;;;;;;;5.78;3.33;;;;;;;4.12;71.94;101459.78;1768221;81;21202;-61
2022/02/12 13:08:51;;;;;;;5.47;2.95;;;;;;;4.08;72.13;101469.96;1740970;82;21283;-62
2022/02/12 13:11:57;;;;;;;5.45;4.05;;;;;;;4.15;72.24;101471.27;1740150;82;21193;-61
2022/02/12 13:15:06;;;;;;;5.00;3.00;;;;;;;4.25;72.09;101468.78;1740491;81;21336;-61
2022/02/12 13:18:15;;;;;;;6.12;3.42;;;;;;;4.30;71.98;101479.66;1740580;82;21212;-61
2022/02/12 13:21:23;;;;;;;6.65;4.55;;;;;;;4.37;71.97;101485.51;1761646;81;21217;-60
2022/02/12 13:24:29;;;;;;;6.22;3.85;;;;;;;4.44;72.00;101493.08;1768821;79;21268;-61
2022/02/12 13:27:39;;;;;;;5.08;3.52;;;;;;;4.49;71.98;101503.59;1762686;80;21299;-61
2022/02/12 13:30:44;;;;;;;5.85;3.80;;;;;;;4.52;71.93;101509.67;1770155;79;21208;-62
2022/02/12 13:33:52;;;;;;;9.25;5.05;;;;;;;4.51;71.77;101512.50;1769103;81;21698;-62
2022/02/12 13:36:59;;;;;;;9.38;5.58;;;;;;;4.48;71.50;101519.49;1770385;80;21205;-62
2022/02/12 13:40:06;;;;;;;11.08;6.40;;;;;;;4.46;71.70;101534.52;1770987;79;21221;-61
2022/02/12 13:43:28;;;;;;;10.60;5.83;;;;;;;4.37;71.46;101537.89;1763543;81;21205;-61
2022/02/12 13:46:31;;;;;;;8.38;5.10;;;;;;;4.31;71.75;101538.30;1770181;81;21269;-62
2022/02/12 13:49:39;;;;;;;8.23;5.55;;;;;;;4.27;71.76;101546.75;1769861;79;21268;-62
2022/02/12 13:52:46;;;;;;;7.30;4.97;;;;;;;4.22;71.63;101548.44;1761333;81;21180;-60
2022/02/12 13:56:05;;;;;;;9.88;6.70;;;;;;;4.16;71.68;101553.41;1748857;81;21714;-60
2022/02/12 13:59:11;;;;;;;10.55;6.10;;;;;;;4.10;71.60;101563.33;1764611;81;21204;-60
2022/02/12 14:02:17;;;;;;;14.33;8.53;;;;;;;4.03;71.72;101568.30;1750603;81;21212;-61
2022/02/12 14:05:25;;;;;;;11.35;7.40;;;;;;;3.91;71.71;101578.63;1748436;80;21198;-60
2022/02/12 14:08:32;;;;;;;10.05;6.37;;;;;;;3.84;72.10;101595.38;1744543;81;21221;-60
2022/02/12 14:11:39;;;;;;;8.35;5.97;;;;;;;3.78;72.38;101595.32;1740370;82;21375;-60
2022/02/12 14:14:45;;;;;;;9.45;6.05;;;;;;;3.77;72.52;101596.30;1740460;82;21359;-59
2022/02/12 14:17:54;;;;;;;14.23;6.70;;;;;;;3.76;72.65;101600.47;1738765;82;21346;-59
2022/02/12 14:21:02;;;;;;;14.95;7.90;;;;;;;3.78;72.82;101606.16;1739591;82;21475;-59
2022/02/12 14:24:07;;;;;;;11.90;7.03;;;;;;;3.79;72.82;101616.52;1739783;82;21363;-61
2022/02/12 14:27:12;;;;;;;15.25;7.33;;;;;;;3.75;72.90;101613.13;1740357;82;21717;-61
2022/02/12 14:30:20;;;;;;;10.48;6.90;;;;;;;3.77;72.95;101621.16;1740616;82;21213;-61
2022/02/12 14:33:28;;;;;;;9.63;6.35;;;;;;;3.78;72.97;101626.47;1739847;82;21355;-61
2022/02/12 14:36:33;;;;;;;10.08;5.67;;;;;;;3.79;72.97;101634.96;1740736;82;21347;-60
2022/02/12 14:39:40;;;;;;;9.93;6.80;;;;;;;3.79;72.78;101625.48;1740255;82;21363;-61